KRNT - Renton
Updated: Thu, 16-Aug-2018 2:53pm PDT
Haze, Clear
Haze, Clear
 Wind from varies
Wind: varies 6 mph , 9 km/h
Temperature: 70°F , 21°C
Dew Point: 55°F , 13°C
Humidity: 60%
Barometer: 30.08 inHg , 1018.6 hPa
Visibility: 10 miles , 16 km
2018/08/16 21:53 KRNT 162153Z VRB05KT 10SM HZ CLR 21/13 A3008 RMK AO2 SLP189 T02110133
KBFI - Seattle-Boeing
Updated: Thu, 16-Aug-2018 2:53pm PDT
Haze, Smoke, Clear
Haze, Smoke, Clear
 Wind from calm
Wind: Calm
Temperature: 68°F , 20°C
Dew Point: 55°F , 13°C
Humidity: 64%
Barometer: 30.08 inHg , 1018.6 hPa
Summary: Haze, Smoke
Visibility: 6 miles , 10 km
2018/08/16 21:53 KBFI 162153Z 00000KT 6SM HZ FU CLR 20/13 A3008 RMK AO2 SLP185 T02000128
 
KSEA - Seattle
Updated: Thu, 16-Aug-2018 2:53pm PDT

 Wind from varies
Wind: varies 6 mph , 9 km/h
Temperature: 70°F , 21°C
Dew Point: 55°F , 13°C
Humidity: 60%
Barometer: 30.09 inHg , 1019 hPa
Visibility: 10 miles , 16 km
Cloud details: 1500 ft
2018/08/16 21:53 KSEA 162153Z VRB05KT 10SM FEW015 21/13 A3009 RMK AO2 SLP194 T02060133
KSMP - Stampede Pass
Updated: Thu, 16-Aug-2018 1:56pm PDT

 Wind from varies
Wind: varies 5 mph , 7 km/h
Temperature: 73°F , 23°C
Dew Point: 52°F , 11°C
Humidity: 47%
Barometer: 30.16 inHg , 1021.3 hPa
Visibility: 7 miles , 11 km
2018/08/16 20:56 KSMP 162056Z AUTO VRB04KT 7SM CLR 23/11 A3016 RMK AO2 SLP180 T02330106 55001